createdAt,value
2022-08-03T04:06:03.727Z,101050.28
2022-08-03T04:08:49.382Z,101067.75
2022-08-03T04:11:29.197Z,101057.47
2022-08-03T04:14:19.952Z,101057.22
2022-08-03T04:16:49.974Z,101051.41
2022-08-03T04:19:30.300Z,101052.78
2022-08-03T04:22:00.920Z,101055.69
2022-08-03T04:24:40.123Z,101064.41
2022-08-03T04:27:09.441Z,101070.78
2022-08-03T04:29:48.397Z,101060.25
2022-08-03T04:32:16.974Z,101061.81
2022-08-03T04:34:44.193Z,101065.25
2022-08-03T04:37:23.141Z,101061.38
2022-08-03T04:39:50.926Z,101063.94
2022-08-03T04:42:21.288Z,101057.91
2022-08-03T04:44:48.797Z,101063.47
2022-08-03T04:47:16.039Z,101059.44
2022-08-03T04:49:42.834Z,101064.50
2022-08-03T04:52:10.137Z,101059.44
2022-08-03T04:54:42.039Z,101061.81
2022-08-03T04:57:08.803Z,101057.91
2022-08-03T04:59:36.332Z,101062.34
2022-08-03T05:02:07.494Z,101056.78
2022-08-03T05:04:34.251Z,101067.88
2022-08-03T05:07:00.732Z,101064.16
2022-08-03T05:09:52.489Z,101062.59
2022-08-03T05:12:19.654Z,101071.31
2022-08-03T05:14:46.123Z,101069.97
2022-08-03T05:17:12.594Z,101065.72
2022-08-03T05:19:39.071Z,101061.50
2022-08-03T05:22:05.549Z,101058.34
2022-08-03T05:24:32.030Z,101066.75
2022-08-03T05:26:58.543Z,101071.19
2022-08-03T05:29:25.056Z,101073.56
2022-08-03T05:31:51.502Z,101074.56
2022-08-03T05:34:17.977Z,101071.66
2022-08-03T05:36:44.427Z,101075.34
2022-08-03T05:39:10.935Z,101075.56
2022-08-03T05:41:37.646Z,101069.19
2022-08-03T05:44:04.665Z,101074.44
2022-08-03T05:46:31.175Z,101069.44
2022-08-03T05:48:57.752Z,101079.94
2022-08-03T05:51:24.244Z,101085.19
2022-08-03T05:53:50.906Z,101078.81
2022-08-03T05:56:17.486Z,101076.94
2022-08-03T05:58:45.443Z,101075.06
2022-08-03T06:01:12.095Z,101077.41
2022-08-03T06:03:38.751Z,101076.25
2022-08-03T06:06:05.386Z,101072.00
2022-08-03T06:08:31.951Z,101073.03
2022-08-03T06:10:58.759Z,101075.59
2022-08-03T06:13:25.227Z,101077.16
2022-08-03T06:15:51.699Z,101081.88
2022-08-03T06:18:18.271Z,101080.72
2022-08-03T06:20:44.801Z,101071.44
2022-08-03T06:23:16.103Z,101085.09
2022-08-03T06:25:44.543Z,101074.22
2022-08-03T06:28:35.289Z,101074.66
2022-08-03T06:30:59.070Z,101063.03
2022-08-03T06:33:26.474Z,101075.13
2022-08-03T06:36:12.937Z,101081.38
2022-08-03T06:38:39.374Z,101081.81
2022-08-03T06:41:05.843Z,101085.72
2022-08-03T06:43:35.861Z,101080.34
2022-08-03T06:46:02.491Z,101067.56
2022-08-03T06:48:28.933Z,101075.38
2022-08-03T06:50:55.424Z,101085.13
2022-08-03T06:53:22.512Z,101086.34
2022-08-03T06:55:53.883Z,101085.22
2022-08-03T06:58:21.086Z,101089.38
2022-08-03T07:00:47.982Z,101085.34
2022-08-03T07:03:15.077Z,101091.59
2022-08-03T07:05:43.399Z,101083.28
2022-08-03T07:08:10.044Z,101087.44
2022-08-03T07:10:37.059Z,101085.50
2022-08-03T07:13:04.262Z,101085.13
2022-08-03T07:15:54.217Z,101084.81
2022-08-03T07:18:17.586Z,101091.03
2022-08-03T07:20:55.552Z,101085.66
2022-08-03T07:23:22.466Z,101083.16
2022-08-03T07:25:48.967Z,101086.16
2022-08-03T07:28:15.493Z,101087.94
2022-08-03T07:30:41.955Z,101097.31
2022-08-03T07:33:08.414Z,101099.31
2022-08-03T07:35:35.050Z,101090.19
2022-08-03T07:38:01.518Z,101092.97
2022-08-03T07:40:31.630Z,101092.63
2022-08-03T07:42:58.825Z,101097.75
2022-08-03T07:45:26.445Z,101089.22
2022-08-03T07:47:53.563Z,101095.47
2022-08-03T07:50:21.053Z,101099.00
2022-08-03T07:52:47.893Z,101094.38
2022-08-03T07:55:15.874Z,101095.78
2022-08-03T07:57:42.528Z,101091.72
2022-08-03T08:00:15.807Z,101095.28
2022-08-03T08:02:43.148Z,101105.00
2022-08-03T08:05:10.949Z,101091.84
2022-08-03T08:07:38.134Z,101095.16
2022-08-03T08:10:06.894Z,101088.19
2022-08-03T08:12:33.745Z,101092.50
2022-08-03T08:15:00.352Z,101084.16
2022-08-03T08:17:26.872Z,101081.44
2022-08-03T08:19:53.683Z,101082.88
2022-08-03T08:22:29.872Z,101076.44
2022-08-03T08:24:58.269Z,101086.81
2022-08-03T08:27:24.806Z,101083.53
2022-08-03T08:29:55.133Z,101083.16
2022-08-03T08:32:23.349Z,101079.28
2022-08-03T08:34:49.927Z,101080.25
2022-08-03T08:37:16.430Z,101079.88
2022-08-03T08:39:42.915Z,101082.84
2022-08-03T08:42:10.141Z,101081.88
2022-08-03T08:44:36.635Z,101076.81
2022-08-03T08:47:04.339Z,101080.34
2022-08-03T08:49:33.905Z,101077.03
2022-08-03T08:52:01.641Z,101084.06
2022-08-03T08:54:29.649Z,101075.91
2022-08-03T08:57:01.855Z,101082.91
2022-08-03T08:59:47.615Z,101088.41
2022-08-03T09:02:15.319Z,101091.75
2022-08-03T09:04:42.343Z,101085.50
2022-08-03T09:07:20.060Z,101086.69
2022-08-03T09:10:11.218Z,101087.88
2022-08-03T09:12:45.304Z,101083.78
2022-08-03T09:15:26.553Z,101087.06
2022-08-03T09:17:56.618Z,101089.06
2022-08-03T09:20:24.672Z,101088.44
2022-08-03T09:22:58.951Z,101088.84
2022-08-03T09:25:35.992Z,101090.97
2022-08-03T09:28:10.599Z,101090.97
2022-08-03T09:30:39.206Z,101090.81
2022-08-03T09:33:10.778Z,101083.78
2022-08-03T09:35:54.023Z,101089.06
2022-08-03T09:38:27.232Z,101089.44
2022-08-03T09:40:59.564Z,101083.78
2022-08-03T09:43:27.805Z,101079.13
2022-08-03T09:46:02.988Z,101086.13
2022-08-03T09:48:31.311Z,101080.28
2022-08-03T09:51:13.217Z,101080.69
2022-08-03T09:53:57.231Z,101082.25
2022-08-03T09:56:39.426Z,101076.78
2022-08-03T09:59:06.101Z,101071.69
2022-08-03T10:01:34.826Z,101079.88
2022-08-03T10:04:03.499Z,101075.00
2022-08-03T10:06:31.343Z,101075.78
2022-08-03T10:09:15.669Z,101068.75
2022-08-03T10:11:42.770Z,101068.19
2022-08-03T10:14:18.857Z,101058.03
2022-08-03T10:16:46.997Z,101057.63
2022-08-03T10:19:15.099Z,101054.31
2022-08-03T10:21:51.250Z,101058.78
2022-08-03T10:24:24.263Z,101061.13
2022-08-03T10:26:51.575Z,101061.47
2022-08-03T10:29:22.655Z,101057.97
2022-08-03T10:31:57.540Z,101050.16
2022-08-03T10:34:35.191Z,101051.50
2022-08-03T10:37:07.307Z,101044.66
2022-08-03T10:39:34.095Z,101048.56
2022-08-03T10:42:02.587Z,101050.91
2022-08-03T10:44:41.596Z,101052.63
2022-08-03T10:47:10.363Z,101054.00
2022-08-03T10:49:37.601Z,101049.69
2022-08-03T10:52:13.081Z,101034.81
2022-08-03T10:55:11.016Z,101042.03
2022-08-03T10:57:58.461Z,101036.56
2022-08-03T11:00:28.119Z,101051.19
2022-08-03T11:03:17.624Z,101043.34
2022-08-03T11:05:54.338Z,101044.31
2022-08-03T11:08:23.953Z,101039.41
2022-08-03T11:10:53.398Z,101044.88
2022-08-03T11:13:23.111Z,101042.47
2022-08-03T11:15:52.133Z,101032.47
2022-08-03T11:18:19.145Z,101028.78
2022-08-03T11:20:47.594Z,101031.47
2022-08-03T11:23:16.059Z,101029.50
2022-08-03T11:26:11.733Z,101026.75
2022-08-03T11:28:41.644Z,101029.88
2022-08-03T11:31:48.055Z,101033.75
2022-08-03T11:34:11.989Z,101022.44
2022-08-03T11:37:15.704Z,101035.09
2022-08-03T11:39:45.345Z,101031.78
2022-08-03T11:42:24.298Z,101039.38
2022-08-03T11:44:56.452Z,101022.50
2022-08-03T11:47:25.630Z,101022.06
2022-08-03T11:49:54.700Z,101021.47
2022-08-03T11:52:27.010Z,101022.84
2022-08-03T11:54:57.056Z,101010.09
2022-08-03T11:59:01.386Z,101023.53
2022-08-03T12:00:30.730Z,101020.00
2022-08-03T12:03:09.231Z,101019.41
2022-08-03T12:05:52.315Z,101012.53
2022-08-03T12:08:27.895Z,101020.13
2022-08-03T12:10:56.971Z,101023.25
2022-08-03T12:14:43.785Z,101016.34
2022-08-03T12:16:21.655Z,101014.56
2022-08-03T12:19:17.511Z,101008.50
2022-08-03T12:21:56.925Z,101002.38
2022-08-03T12:24:23.950Z,101004.31
2022-08-03T12:26:56.778Z,101004.13
2022-08-03T12:29:26.332Z,101003.13
2022-08-03T12:31:52.849Z,100990.19
2022-08-03T12:34:19.678Z,100994.06
2022-08-03T12:36:56.818Z,100997.94
2022-08-03T12:39:25.502Z,100989.31
2022-08-03T12:41:56.104Z,100985.59
2022-08-03T12:44:31.823Z,100991.63
2022-08-03T12:46:59.064Z,100996.28
2022-08-03T12:49:25.760Z,100991.56
2022-08-03T12:51:52.179Z,100989.75
2022-08-03T12:54:24.528Z,100986.38
2022-08-03T12:57:01.637Z,100986.38
2022-08-03T12:59:40.723Z,100993.97
2022-08-03T13:02:23.483Z,101002.31
2022-08-03T13:04:51.523Z,100998.03
2022-08-03T13:07:19.518Z,100991.53
2022-08-03T13:09:54.528Z,100987.41
2022-08-03T13:12:22.558Z,100985.41
2022-08-03T13:14:51.822Z,100990.84
2022-08-03T13:17:19.246Z,100985.91
2022-08-03T13:19:47.420Z,100987.03
2022-08-03T13:22:16.433Z,100979.78
2022-08-03T13:24:44.369Z,100984.44
2022-08-03T13:28:01.781Z,100985.22
2022-08-03T13:29:57.899Z,100984.78
2022-08-03T13:32:24.573Z,101000.44
2022-08-03T13:34:51.064Z,100980.38
2022-08-03T13:37:17.548Z,100981.50
2022-08-03T13:39:58.055Z,100978.56
2022-08-03T13:42:27.696Z,100981.03
2022-08-03T13:44:54.264Z,100981.03
2022-08-03T13:47:21.119Z,100971.78
2022-08-03T13:49:59.650Z,100976.59
2022-08-03T13:52:30.173Z,100966.41
2022-08-03T13:54:56.696Z,100972.59
2022-08-03T13:58:06.132Z,100969.06
2022-08-03T14:00:10.624Z,100966.91
2022-08-03T14:02:38.354Z,100958.75
2022-08-03T14:05:05.276Z,100961.97
2022-08-03T14:07:31.809Z,100966.97
2022-08-03T14:09:58.319Z,100959.88
2022-08-03T14:12:24.826Z,100971.63
2022-08-03T14:14:51.286Z,100964.94
2022-08-03T14:17:18.062Z,100962.50
2022-08-03T14:19:53.475Z,100969.94
2022-08-03T14:22:21.391Z,100959.56
2022-08-03T14:24:49.421Z,100967.16
2022-08-03T14:27:16.343Z,100961.63
2022-08-03T14:29:42.937Z,100959.03
2022-08-03T14:32:12.891Z,100954.84
2022-08-03T14:34:40.459Z,100952.06
2022-08-03T14:37:06.945Z,100953.78
2022-08-03T14:42:20.474Z,100948.84
2022-08-03T14:44:47.489Z,100953.50
2022-08-03T14:47:14.245Z,100944.06
2022-08-03T14:50:37.748Z,100941.28
2022-08-03T14:52:27.453Z,100940.53
2022-08-03T14:54:53.963Z,100936.16
2022-08-03T14:57:20.679Z,100934.50
2022-08-03T14:59:56.401Z,100932.94
2022-08-03T15:02:25.221Z,100945.03
2022-08-03T15:04:52.540Z,100934.97
2022-08-03T15:07:20.418Z,100935.91
2022-08-03T15:09:47.273Z,100935.44
2022-08-03T15:12:13.986Z,100941.50
2022-08-03T15:14:40.548Z,100934.22
2022-08-03T15:17:07.520Z,100931.88
2022-08-03T15:20:02.165Z,100935.78
2022-08-03T15:22:24.941Z,100936.41
2022-08-03T15:24:52.276Z,100936.41
2022-08-03T15:27:19.092Z,100931.28
2022-08-03T15:30:06.700Z,100941.06
2022-08-03T15:32:33.616Z,100937.06
2022-08-03T15:35:00.664Z,100931.50
2022-08-03T15:37:27.924Z,100931.50
2022-08-03T15:39:58.433Z,100938.28
2022-08-03T15:42:30.988Z,100939.25
2022-08-03T15:44:57.566Z,100937.22
2022-08-03T15:47:24.042Z,100933.97
2022-08-03T15:49:50.547Z,100925.00
2022-08-03T15:52:17.071Z,100934.13
2022-08-03T15:54:43.562Z,100934.25
2022-08-03T15:57:10.157Z,100926.38
2022-08-03T15:59:36.648Z,100928.69
2022-08-03T16:02:03.862Z,100930.88
2022-08-03T16:04:30.414Z,100922.94
2022-08-03T16:06:56.869Z,100937.53
2022-08-03T16:09:42.127Z,100912.59
2022-08-03T16:12:15.761Z,100924.97
2022-08-03T16:14:53.997Z,100919.97
2022-08-03T16:17:21.575Z,100922.50
2022-08-03T16:19:48.505Z,100922.63
2022-08-03T16:22:17.271Z,100922.16
2022-08-03T16:24:46.596Z,100921.69
2022-08-03T16:27:36.650Z,100927.38
2022-08-03T16:29:59.840Z,100922.09
2022-08-03T16:32:26.298Z,100914.94
2022-08-03T16:34:52.785Z,100915.53
2022-08-03T16:40:17.291Z,100913.19
2022-08-03T16:42:46.718Z,100918.16
2022-08-03T16:45:13.311Z,100915.63
2022-08-03T16:47:39.821Z,100921.97
2022-08-03T16:50:15.453Z,100917.78
2022-08-03T16:52:47.583Z,100922.25
2022-08-03T16:55:15.995Z,100919.75
2022-08-03T16:58:02.822Z,100921.44
2022-08-03T17:00:32.931Z,100925.94
2022-08-03T17:03:04.088Z,100927.78
2022-08-03T17:05:32.645Z,100934.44
2022-08-03T17:08:13.332Z,100936.75
2022-08-03T17:10:45.369Z,100927.91
2022-08-03T17:13:21.483Z,100933.94
2022-08-03T17:16:00.698Z,100928.03
2022-08-03T17:18:34.017Z,100933.16
2022-08-03T17:21:06.559Z,100944.19
2022-08-03T17:24:02.796Z,100936.47
2022-08-03T17:26:34.071Z,100932.09
2022-08-03T17:29:12.680Z,100935.97
2022-08-03T17:31:49.497Z,100943.28
2022-08-03T17:34:17.019Z,100936.47
2022-08-03T17:39:56.106Z,100942.22
2022-08-03T17:42:31.163Z,100937.72
2022-08-03T17:45:02.349Z,100940.31
2022-08-03T17:47:42.321Z,100945.31
2022-08-03T17:50:23.993Z,100938.50
2022-08-03T17:53:01.413Z,100939.56
2022-08-03T17:55:56.780Z,100939.69
2022-08-03T17:58:39.696Z,100942.66
2022-08-03T18:02:00.679Z,100948.84
2022-08-03T18:04:29.631Z,100944.47
2022-08-03T18:06:59.470Z,100947.59
2022-08-03T18:10:03.559Z,100947.59
2022-08-03T18:12:26.988Z,100940.91
2022-08-03T18:15:08.382Z,100946.34
2022-08-03T18:17:55.987Z,100943.22
2022-08-03T18:20:34.270Z,100955.81
2022-08-03T18:23:10.172Z,100950.53
2022-08-03T18:25:44.384Z,100959.38
2022-08-03T18:28:19.162Z,100938.56
2022-08-03T18:30:53.096Z,100951.78
2022-08-03T18:34:16.483Z,100953.06
2022-08-03T18:36:17.853Z,100957.38
2022-08-03T18:39:00.444Z,100954.00
2022-08-03T18:41:32.902Z,100961.31
2022-08-03T18:44:08.046Z,100956.69
2022-08-03T18:47:23.228Z,100955.31
2022-08-03T18:50:19.638Z,100968.34
2022-08-03T18:52:54.800Z,100963.72
2022-08-03T18:55:33.003Z,100970.09
2022-08-03T18:58:17.756Z,100974.16
2022-08-03T19:01:04.060Z,100972.31
2022-08-03T19:03:42.705Z,100968.41
2022-08-03T19:06:19.635Z,100968.88
2022-08-03T19:09:04.447Z,100975.75
2022-08-03T19:14:53.381Z,100978.06
2022-08-03T19:17:22.021Z,100979.16
2022-08-03T19:19:57.560Z,100976.69
2022-08-03T19:22:27.331Z,100975.63
2022-08-03T19:24:55.316Z,100984.19
2022-08-03T19:27:25.393Z,100982.28
2022-08-03T19:29:58.649Z,100981.88
2022-08-03T19:32:31.793Z,100980.16
2022-08-03T19:35:00.245Z,100981.22
2022-08-03T19:37:38.479Z,100988.34
2022-08-03T19:40:10.380Z,100988.66
2022-08-03T19:42:44.380Z,100993.47
2022-08-03T19:45:15.367Z,100990.03
2022-08-03T19:47:56.388Z,100986.63
2022-08-03T19:50:25.047Z,100987.88
2022-08-03T19:52:52.805Z,100988.34
2022-08-03T19:55:20.240Z,100983.53
2022-08-03T19:57:49.155Z,100991.25
2022-08-03T20:00:20.012Z,100985.84
2022-08-03T20:02:54.095Z,100985.53
2022-08-03T20:05:20.551Z,100986.59
2022-08-03T20:07:48.445Z,100984.56
2022-08-03T20:10:17.113Z,100981.47
2022-08-03T20:12:45.422Z,100989.19
2022-08-03T20:15:12.313Z,100976.34
2022-08-03T20:17:56.470Z,100974.63
2022-08-03T20:20:32.108Z,100988.84
2022-08-03T20:23:06.794Z,100987.75
2022-08-03T20:25:55.706Z,100982.16
2022-08-03T20:28:31.995Z,100992.22
2022-08-03T20:30:59.944Z,100999.94
2022-08-03T20:33:48.394Z,100995.13
2022-08-03T20:36:15.880Z,100994.78
2022-08-03T20:38:47.254Z,100994.47
2022-08-03T20:41:15.987Z,101000.00
2022-08-03T20:43:42.635Z,101002.75
2022-08-03T20:46:29.055Z,100992.69
2022-08-03T20:48:58.890Z,100996.03
2022-08-03T20:51:50.448Z,101004.56
2022-08-03T20:54:22.983Z,101001.28
2022-08-03T20:56:57.806Z,100996.44
2022-08-03T20:59:28.715Z,100995.34
2022-08-03T21:01:57.093Z,101003.22
2022-08-03T21:04:23.979Z,101002.88
2022-08-03T21:06:57.543Z,101001.00
2022-08-03T21:09:39.798Z,100994.78
2022-08-03T21:12:07.854Z,101001.09
2022-08-03T21:13:09.782Z,100979.94
2022-08-03T21:14:46.019Z,100992.56
2022-08-03T21:17:31.184Z,101002.41
2022-08-03T21:20:06.668Z,100994.78
2022-08-03T21:22:36.886Z,100993.69
2022-08-03T21:25:09.519Z,100999.22
2022-08-03T21:27:36.981Z,100993.78
2022-08-03T21:30:09.808Z,100991.28
2022-08-03T21:32:40.233Z,100997.56
2022-08-03T21:35:11.040Z,100997.25
2022-08-03T21:37:41.448Z,100995.53
2022-08-03T21:40:10.713Z,101005.03
2022-08-03T21:42:38.402Z,101001.41
2022-08-03T21:45:07.540Z,101005.09
2022-08-03T21:47:37.650Z,100998.28
2022-08-03T21:50:09.745Z,100989.91
2022-08-03T21:52:42.556Z,101003.63
2022-08-03T21:55:18.650Z,100994.47
2022-08-03T21:57:52.054Z,100998.63
